Time;durP1;ratioP1;P1;durP2;ratioP2;P2;SDS_P1;SDS_P2;PMS_P1;PMS_P2;Temp;Humidity;BMP_temperature;BMP_pressure;BME280_temperature;BME280_humidity;BME280_pressure;Samples;Min_cycle;Max_cycle;Signal;HPM_P1;HPM_P2
2022/08/20 00:04:20;;;;;;;1.52;1.10;;;22.20;99.90;;;;;;10250287;28;20099;-69
2022/08/20 00:09:22;;;;;;;3.45;1.42;;;22.20;99.90;;;;;;10249770;28;20101;-69
2022/08/20 00:14:23;;;;;;;3.10;0.90;;;22.10;99.90;;;;;;10247024;28;20126;-69
2022/08/20 00:19:25;;;;;;;5.03;0.90;;;22.10;99.90;;;;;;10252788;28;20054;-69
2022/08/20 00:24:27;;;;;;;1.88;0.90;;;22.10;99.90;;;;;;10243426;28;20046;-69
2022/08/20 00:29:29;;;;;;;2.85;1.40;;;22.10;99.90;;;;;;10245532;28;20078;-69
2022/08/20 00:34:31;;;;;;;4.20;1.00;;;22.10;99.90;;;;;;10250067;28;20094;-69
2022/08/20 00:39:32;;;;;;;3.63;0.95;;;22.20;99.90;;;;;;10256204;28;20105;-68
2022/08/20 00:44:35;;;;;;;1.83;1.08;;;22.10;99.90;;;;;;10257499;28;20125;-67
2022/08/20 00:49:36;;;;;;;3.40;0.90;;;22.10;99.90;;;;;;10243900;28;20099;-67
2022/08/20 00:54:50;;;;;;;2.40;0.80;;;22.10;99.90;;;;;;10252478;28;20078;-67
2022/08/20 00:59:52;;;;;;;3.30;1.48;;;22.10;99.90;;;;;;10244571;28;20054;-67
2022/08/20 01:04:55;;;;;;;2.63;1.10;;;22.00;99.90;;;;;;10243467;28;20055;-67
2022/08/20 01:09:57;;;;;;;2.03;1.08;;;22.00;99.90;;;;;;10231607;28;20067;-67
2022/08/20 01:15:04;;;;;;;2.90;1.13;;;22.00;99.90;;;;;;10244657;28;20046;-67
2022/08/20 01:20:19;;;;;;;2.20;0.80;;;22.00;99.90;;;;;;10244593;28;20516;-67
2022/08/20 01:25:46;;;;;;;3.30;1.38;;;21.90;99.90;;;;;;10237187;28;20059;-67
2022/08/20 01:30:47;;;;;;;;;;;22.00;99.90;;;;;;10242843;28;20059;-67
2022/08/20 01:35:50;;;;;;;2.55;1.23;;;21.90;99.90;;;;;;10245054;28;20564;-67
2022/08/20 01:41:13;;;;;;;3.53;1.17;;;21.90;99.90;;;;;;10246050;28;20080;-67
2022/08/20 01:46:16;;;;;;;1.92;1.42;;;21.90;99.90;;;;;;10242593;28;20114;-67
2022/08/20 01:51:25;;;;;;;6.53;1.25;;;21.90;99.90;;;;;;10245260;28;20047;-67
2022/08/20 01:56:29;;;;;;;3.85;1.27;;;21.90;99.90;;;;;;10250056;28;20086;-67
2022/08/20 02:01:39;;;;;;;2.50;1.27;;;21.90;99.90;;;;;;10242463;28;20716;-67
2022/08/20 02:06:51;;;;;;;1.70;1.33;;;21.90;99.90;;;;;;10248890;28;20121;-67
2022/08/20 02:11:59;;;;;;;2.55;1.45;;;21.90;99.90;;;;;;10243543;28;20059;-67
2022/08/20 02:17:01;;;;;;;1.27;1.10;;;21.90;99.90;;;;;;10249844;28;20112;-67
2022/08/20 02:22:12;;;;;;;1.98;1.45;;;21.80;99.90;;;;;;10254659;28;20102;-67
2022/08/20 02:27:14;;;;;;;2.38;1.45;;;21.80;99.90;;;;;;10253386;28;20035;-67
2022/08/20 02:32:16;;;;;;;1.73;1.45;;;21.90;99.90;;;;;;10247568;28;20545;-67
2022/08/20 02:37:36;;;;;;;1.60;1.10;;;21.90;99.90;;;;;;10242090;28;20098;-67
2022/08/20 02:42:41;;;;;;;2.20;1.33;;;21.80;99.90;;;;;;10253288;28;20039;-67
2022/08/20 02:47:44;;;;;;;1.90;1.63;;;21.80;99.90;;;;;;10256979;28;20068;-68
2022/08/20 02:52:46;;;;;;;2.25;1.58;;;21.80;99.90;;;;;;10248231;28;20074;-67
2022/08/20 02:57:57;;;;;;;2.70;1.95;;;21.70;99.90;;;;;;10246131;28;20055;-67
2022/08/20 03:03:00;;;;;;;1.67;1.42;;;21.80;99.90;;;;;;10248878;28;20553;-67
2022/08/20 03:08:02;;;;;;;2.78;2.15;;;21.80;99.90;;;;;;10258446;28;20050;-67
2022/08/20 03:13:06;;;;;;;3.08;1.80;;;21.90;99.90;;;;;;10250377;28;20051;-67
2022/08/20 03:18:08;;;;;;;3.22;2.60;;;21.90;99.90;;;;;;10247341;28;20138;-67
2022/08/20 03:23:11;;;;;;;4.13;2.95;;;21.80;99.90;;;;;;10251986;28;20050;-68
2022/08/20 03:28:13;;;;;;;3.10;2.20;;;21.90;99.90;;;;;;10254589;28;20047;-68
2022/08/20 03:33:16;;;;;;;6.40;2.45;;;21.90;99.90;;;;;;10250519;28;20051;-68
2022/08/20 03:38:20;;;;;;;5.05;1.77;;;21.90;99.90;;;;;;10256504;28;20046;-68
2022/08/20 03:43:34;;;;;;;4.90;3.40;;;21.90;99.90;;;;;;10253213;28;20651;-68
2022/08/20 03:48:37;;;;;;;6.68;4.65;;;21.90;99.90;;;;;;10256998;28;20074;-68
2022/08/20 03:53:39;;;;;;;7.63;5.60;;;21.80;99.90;;;;;;10252592;28;20112;-67
2022/08/20 03:58:40;;;;;;;10.25;6.03;;;21.80;99.90;;;;;;10252933;28;20047;-67
2022/08/20 04:03:43;;;;;;;10.15;6.20;;;21.80;99.90;;;;;;10258723;28;20110;-68
2022/08/20 04:08:45;;;;;;;9.15;6.88;;;21.80;99.90;;;;;;10247616;28;20101;-68
2022/08/20 04:13:46;;;;;;;8.20;6.13;;;21.70;99.90;;;;;;10253616;28;20387;-68
2022/08/20 04:18:50;;;;;;;8.32;6.22;;;21.70;99.90;;;;;;10257786;28;20058;-68
2022/08/20 04:24:04;;;;;;;6.80;6.00;;;21.70;99.90;;;;;;10254284;28;20098;-65
2022/08/20 04:29:06;;;;;;;7.45;5.30;;;21.60;99.90;;;;;;10259716;28;20054;-65
2022/08/20 04:34:08;;;;;;;6.30;5.18;;;21.60;99.90;;;;;;10247327;28;20082;-64
2022/08/20 04:39:09;;;;;;;7.93;5.78;;;21.50;99.90;;;;;;10249984;28;20058;-64
2022/08/20 04:44:11;;;;;;;8.32;6.22;;;21.50;99.90;;;;;;10247427;28;20111;-64
2022/08/20 04:49:14;;;;;;;9.35;6.32;;;21.50;99.90;;;;;;10251164;28;20066;-64
2022/08/20 04:54:15;;;;;;;8.10;6.43;;;21.50;99.90;;;;;;10245538;28;20055;-64
2022/08/20 04:59:17;;;;;;;7.65;6.38;;;21.40;99.90;;;;;;10247578;28;20061;-64
2022/08/20 05:04:19;;;;;;;8.30;6.93;;;21.40;99.90;;;;;;10245525;28;20051;-64
2022/08/20 05:09:20;;;;;;;7.28;5.80;;;21.40;99.90;;;;;;10249909;28;20059;-64
2022/08/20 05:14:22;;;;;;;5.60;4.63;;;21.40;99.90;;;;;;10242569;28;20046;-64
2022/08/20 05:19:24;;;;;;;4.00;3.60;;;21.40;99.90;;;;;;10247447;28;20050;-64
2022/08/20 05:24:26;;;;;;;5.93;5.32;;;21.10;99.90;;;;;;10240812;28;20058;-65
2022/08/20 05:29:27;;;;;;;7.47;5.50;;;21.00;99.90;;;;;;10236960;28;20393;-65
2022/08/20 05:34:29;;;;;;;9.43;6.43;;;20.90;99.90;;;;;;10249322;28;20059;-65
2022/08/20 05:39:31;;;;;;;8.48;5.65;;;20.80;99.90;;;;;;10245002;28;20082;-65
2022/08/20 05:44:38;;;;;;;9.00;6.50;;;20.90;99.90;;;;;;10247240;28;20053;-65
2022/08/20 05:49:39;;;;;;;9.32;6.80;;;21.00;99.90;;;;;;10246239;28;20059;-65
2022/08/20 05:54:43;;;;;;;9.75;6.25;;;21.10;99.90;;;;;;10240561;28;20058;-65
2022/08/20 05:59:46;;;;;;;7.38;5.88;;;21.20;99.90;;;;;;10250144;28;20050;-65
2022/08/20 06:04:47;;;;;;;10.73;6.82;;;21.30;99.90;;;;;;10251374;28;20172;-65
2022/08/20 06:09:56;;;;;;;7.25;5.43;;;21.40;99.90;;;;;;10252554;28;20166;-65
2022/08/20 06:14:58;;;;;;;6.85;5.22;;;21.40;99.90;;;;;;10257982;28;20083;-65
2022/08/20 06:20:04;;;;;;;8.23;5.20;;;21.40;99.90;;;;;;10253011;28;20062;-65
2022/08/20 06:25:07;;;;;;;5.18;4.15;;;21.40;99.90;;;;;;10260055;28;20043;-65
2022/08/20 06:30:12;;;;;;;7.32;5.03;;;21.50;99.90;;;;;;10244240;28;20047;-65
2022/08/20 06:35:14;;;;;;;5.20;4.32;;;21.50;99.90;;;;;;10256529;28;20144;-65
2022/08/20 06:40:23;;;;;;;;;;;21.70;99.90;;;;;;10255762;28;20505;-65
2022/08/20 06:45:28;;;;;;;4.45;3.20;;;21.70;99.90;;;;;;10255212;28;19923;-65
2022/08/20 06:50:38;;;;;;;3.25;2.85;;;21.80;99.90;;;;;;10260190;28;20445;-65
2022/08/20 06:55:51;;;;;;;3.05;2.75;;;22.00;99.90;;;;;;10246115;28;20058;-65
2022/08/20 07:00:53;;;;;;;5.80;3.70;;;22.30;99.90;;;;;;10249755;28;20058;-65
2022/08/20 07:05:55;;;;;;;4.85;4.35;;;22.50;99.90;;;;;;10237252;28;20050;-65
2022/08/20 07:10:57;;;;;;;5.80;3.50;;;22.40;99.90;;;;;;10246129;28;20051;-65
2022/08/20 07:15:58;;;;;;;3.95;3.40;;;22.40;99.90;;;;;;10253725;28;20442;-65
2022/08/20 07:21:00;;;;;;;4.65;3.22;;;22.30;99.90;;;;;;10247344;28;20066;-65
2022/08/20 07:26:02;;;;;;;5.60;4.03;;;22.50;99.90;;;;;;10253802;28;20051;-65
2022/08/20 07:36:24;;;;;;;4.85;3.58;;;22.70;99.90;;;;;;10246643;28;20141;-65
2022/08/20 07:41:26;;;;;;;4.35;3.35;;;22.80;99.90;;;;;;10252221;28;20059;-65
2022/08/20 07:46:30;;;;;;;4.32;3.92;;;22.90;99.90;;;;;;10252104;28;20114;-65
2022/08/20 07:51:32;;;;;;;4.15;3.47;;;23.10;99.90;;;;;;10249102;28;20126;-65
2022/08/20 07:56:34;;;;;;;3.83;3.30;;;23.00;99.90;;;;;;10249675;28;20054;-65
2022/08/20 08:01:37;;;;;;;3.97;3.50;;;23.10;99.90;;;;;;10237239;28;20069;-64
2022/08/20 08:06:39;;;;;;;5.47;3.55;;;23.20;99.90;;;;;;10252035;28;20141;-66
2022/08/20 08:11:49;;;;;;;4.65;3.83;;;23.40;99.90;;;;;;10247164;28;20043;-64
2022/08/20 08:16:53;;;;;;;4.45;3.65;;;23.30;99.90;;;;;;10254300;28;20059;-64
2022/08/20 08:21:56;;;;;;;2.83;2.63;;;23.30;99.90;;;;;;10247126;28;20051;-65
2022/08/20 08:26:59;;;;;;;2.88;2.58;;;23.50;99.90;;;;;;10255073;28;20494;-64
2022/08/20 08:32:02;;;;;;;3.22;2.88;;;23.80;99.90;;;;;;10248113;28;20114;-64
2022/08/20 08:37:04;;;;;;;2.25;2.05;;;24.00;99.90;;;;;;10236006;28;20062;-65
2022/08/20 08:42:46;;;;;;;2.17;1.98;;;24.20;99.90;;;;;;10251825;28;20059;-64
2022/08/20 08:47:47;;;;;;;2.25;1.98;;;24.40;99.90;;;;;;10249767;28;20062;-65
2022/08/20 08:52:52;;;;;;;2.20;1.42;;;24.50;99.90;;;;;;10245390;28;20531;-65
2022/08/20 08:58:00;;;;;;;3.55;1.58;;;24.70;99.90;;;;;;10214846;28;20113;-65
2022/08/20 09:03:25;;;;;;;1.23;1.13;;;24.60;99.90;;;;;;10252219;28;20560;-64
2022/08/20 09:08:42;;;;;;;1.02;0.73;;;24.70;99.90;;;;;;10255645;28;20109;-65
2022/08/20 09:13:44;;;;;;;1.58;0.75;;;24.90;99.90;;;;;;10245755;28;20055;-65
2022/08/20 09:18:46;;;;;;;1.42;0.57;;;25.00;99.90;;;;;;10249065;28;20479;-65
2022/08/20 09:23:47;;;;;;;0.90;0.60;;;25.10;99.90;;;;;;10233312;28;20062;-65
2022/08/20 09:28:49;;;;;;;2.05;0.88;;;25.00;99.90;;;;;;10250705;28;20125;-65
2022/08/20 09:33:52;;;;;;;0.95;0.50;;;25.00;99.90;;;;;;10246940;28;20098;-65
2022/08/20 09:38:55;;;;;;;1.25;0.80;;;25.40;99.90;;;;;;10232775;28;20054;-65
2022/08/20 09:43:56;;;;;;;1.48;1.35;;;25.60;99.90;;;;;;10257755;28;20051;-65
2022/08/20 09:48:58;;;;;;;0.80;0.80;;;25.50;99.90;;;;;;10260520;28;20062;-65
2022/08/20 09:54:01;;;;;;;2.45;0.60;;;25.20;99.90;;;;;;10254281;28;20090;-65
2022/08/20 09:59:03;;;;;;;3.92;0.40;;;25.00;99.90;;;;;;10253898;28;20054;-65
2022/08/20 10:04:05;;;;;;;2.38;0.65;;;25.00;99.90;;;;;;10256309;28;20053;-68
2022/08/20 10:09:07;;;;;;;0.22;0.20;;;24.90;99.90;;;;;;10256081;28;20117;-65
2022/08/20 10:14:09;;;;;;;1.00;0.40;;;25.10;99.90;;;;;;10259565;28;20059;-65
2022/08/20 10:19:11;;;;;;;0.73;0.30;;;25.20;99.90;;;;;;10218611;28;20055;-65
2022/08/20 10:24:12;;;;;;;0.40;0.25;;;25.50;99.90;;;;;;10256616;28;20051;-65
2022/08/20 10:29:15;;;;;;;0.30;0.30;;;25.80;99.90;;;;;;10239853;28;20398;-65
2022/08/20 10:34:17;;;;;;;1.38;0.30;;;25.90;99.90;;;;;;10245097;28;20039;-65
2022/08/20 10:39:18;;;;;;;0.30;0.25;;;26.40;99.90;;;;;;10254815;28;20058;-65
2022/08/20 10:44:20;;;;;;;0.50;0.30;;;26.70;99.90;;;;;;10249773;28;20077;-65
2022/08/20 10:49:22;;;;;;;0.50;0.30;;;26.90;99.90;;;;;;10259623;28;20050;-65
2022/08/20 10:54:23;;;;;;;0.30;0.30;;;27.30;99.90;;;;;;10257676;28;20062;-65
2022/08/20 10:59:25;;;;;;;1.25;0.40;;;27.30;99.90;;;;;;10249837;28;20043;-65
2022/08/20 11:04:26;;;;;;;1.45;0.40;;;27.40;99.90;;;;;;10252293;28;20047;-65
2022/08/20 11:09:28;;;;;;;0.40;0.40;;;27.30;99.90;;;;;;10248490;28;20046;-65
2022/08/20 11:14:30;;;;;;;1.38;0.40;;;27.30;99.90;;;;;;10246662;28;20450;-65
2022/08/20 11:19:32;;;;;;;2.22;0.40;;;27.20;99.90;;;;;;10250878;28;20457;-64
2022/08/20 11:24:33;;;;;;;0.93;0.40;;;27.20;99.90;;;;;;10249642;28;20441;-64
2022/08/20 11:29:36;;;;;;;0.30;0.30;;;27.40;99.90;;;;;;10243384;28;20410;-67
2022/08/20 11:34:38;;;;;;;1.38;0.30;;;27.80;99.90;;;;;;10255167;28;20446;-65
2022/08/20 11:39:40;;;;;;;0.40;0.40;;;27.90;99.90;;;;;;10247488;28;20043;-65
2022/08/20 11:44:42;;;;;;;0.40;0.38;;;28.00;99.90;;;;;;10244527;28;20446;-65
2022/08/20 11:49:44;;;;;;;0.40;0.40;;;28.20;99.90;;;;;;10249857;28;20113;-65
2022/08/20 11:54:46;;;;;;;0.40;0.30;;;28.20;99.90;;;;;;10255926;28;20109;-65
2022/08/20 11:59:54;;;;;;;0.30;0.30;;;28.50;99.90;;;;;;10256453;28;20066;-65
2022/08/20 12:04:56;;;;;;;1.15;0.40;;;28.70;99.90;;;;;;10253140;28;20062;-65
2022/08/20 12:09:58;;;;;;;0.30;0.20;;;28.70;99.90;;;;;;10251540;28;20062;-65
2022/08/20 12:14:59;;;;;;;0.20;0.20;;;28.40;98.50;;;;;;10235280;28;20101;-65
2022/08/20 12:20:08;;;;;;;0.28;0.20;;;28.40;98.00;;;;;;10246709;28;20482;-65
2022/08/20 12:25:10;;;;;;;0.30;0.20;;;28.60;97.80;;;;;;10252551;28;20086;-65
2022/08/20 12:30:16;;;;;;;2.80;0.20;;;28.70;97.20;;;;;;10249028;28;20068;-65
2022/08/20 12:35:18;;;;;;;;;;;28.70;97.30;;;;;;10255002;28;20058;-64
2022/08/20 12:40:27;;;;;;;0.20;0.20;;;28.70;97.40;;;;;;10249561;28;20168;-65
2022/08/20 12:45:34;;;;;;;0.93;0.30;;;28.70;97.20;;;;;;10248178;28;20047;-65
2022/08/20 12:50:38;;;;;;;0.32;0.22;;;28.60;96.90;;;;;;10247702;28;20043;-65
2022/08/20 12:55:39;;;;;;;0.15;0.15;;;28.80;97.30;;;;;;10241845;28;20047;-65
2022/08/20 13:00:43;;;;;;;0.32;0.20;;;28.80;96.30;;;;;;10251810;28;20059;-65
2022/08/20 13:05:51;;;;;;;0.20;0.20;;;29.40;95.70;;;;;;10238613;28;20113;-65
2022/08/20 13:10:52;;;;;;;0.20;0.20;;;29.90;93.60;;;;;;10237423;28;20062;-65
2022/08/20 13:15:54;;;;;;;1.55;0.13;;;30.40;92.70;;;;;;10250340;28;20556;-65
2022/08/20 13:20:55;;;;;;;0.10;0.10;;;30.90;92.00;;;;;;10248695;28;20094;-65
2022/08/20 13:25:57;;;;;;;0.13;0.10;;;31.30;91.20;;;;;;10252977;28;20054;-65
2022/08/20 13:31:00;;;;;;;0.98;0.20;;;32.00;88.20;;;;;;10230769;28;20062;-65
2022/08/20 13:36:02;;;;;;;1.85;0.10;;;32.10;84.10;;;;;;10245415;28;20187;-65
2022/08/20 13:41:04;;;;;;;0.55;0.10;;;31.80;81.80;;;;;;10250401;28;20051;-65
2022/08/20 13:46:06;;;;;;;0.70;0.10;;;32.70;80.20;;;;;;10247801;28;20070;-65
2022/08/20 13:51:08;;;;;;;0.45;0.13;;;33.60;77.20;;;;;;10243697;28;20047;-65
2022/08/20 13:56:09;;;;;;;3.80;0.30;;;34.20;72.10;;;;;;10251769;28;20094;-65
2022/08/20 14:01:11;;;;;;;1.13;0.40;;;34.10;69.20;;;;;;10224498;28;20051;-65
2022/08/20 14:06:13;;;;;;;0.60;0.40;;;33.80;66.10;;;;;;10244883;28;20047;-65
2022/08/20 14:11:15;;;;;;;0.70;0.35;;;34.40;66.50;;;;;;10244671;28;20700;-65
2022/08/20 14:16:18;;;;;;;1.43;0.47;;;35.00;62.50;;;;;;10247446;28;20498;-66
2022/08/20 14:21:27;;;;;;;0.50;0.30;;;35.00;60.90;;;;;;10245876;28;20070;-66
2022/08/20 14:26:29;;;;;;;0.65;0.30;;;35.70;63.60;;;;;;10255355;28;20048;-66
2022/08/20 14:31:31;;;;;;;0.22;0.20;;;34.40;61.70;;;;;;10262558;28;20054;-65
2022/08/20 14:36:32;;;;;;;0.32;0.25;;;33.40;63.70;;;;;;10250662;28;20731;-65
2022/08/20 14:41:34;;;;;;;0.30;0.30;;;32.80;64.90;;;;;;10256468;28;20047;-65
2022/08/20 14:46:36;;;;;;;0.52;0.30;;;33.20;63.90;;;;;;10234407;28;20387;-66
2022/08/20 14:51:37;;;;;;;0.70;0.30;;;33.40;63.70;;;;;;10251429;28;20047;-65
2022/08/20 14:56:39;;;;;;;0.50;0.20;;;32.20;65.20;;;;;;10248826;28;20043;-65
2022/08/20 15:01:41;;;;;;;0.40;0.30;;;32.30;65.80;;;;;;10249590;28;20046;-65
2022/08/20 15:06:42;;;;;;;0.47;0.35;;;32.20;65.60;;;;;;10251670;28;20047;-65
2022/08/20 15:11:46;;;;;;;2.08;0.40;;;32.30;65.60;;;;;;10249863;28;20055;-65
2022/08/20 15:16:47;;;;;;;0.85;0.40;;;32.20;65.70;;;;;;10247407;28;20058;-65
2022/08/20 15:21:49;;;;;;;3.75;0.40;;;32.10;65.00;;;;;;10249388;28;20110;-65
2022/08/20 15:26:51;;;;;;;0.40;0.38;;;31.80;64.80;;;;;;10246145;28;20054;-65
2022/08/20 15:31:52;;;;;;;1.15;0.40;;;31.40;64.80;;;;;;10254533;28;20450;-65
2022/08/20 15:36:56;;;;;;;0.60;0.40;;;31.60;65.00;;;;;;10246665;28;20187;-65
2022/08/20 15:41:57;;;;;;;0.70;0.30;;;31.50;65.00;;;;;;10249061;28;20573;-65
2022/08/20 15:47:17;;;;;;;1.25;0.40;;;31.20;65.30;;;;;;10247242;28;20066;-65
2022/08/20 15:52:19;;;;;;;3.70;0.40;;;30.90;66.40;;;;;;10254465;28;20509;-65
2022/08/20 15:57:39;;;;;;;0.30;0.30;;;30.50;65.40;;;;;;10253850;28;20611;-65
2022/08/20 16:03:05;;;;;;;1.75;0.40;;;30.20;66.20;;;;;;10255093;28;20051;-66
2022/08/20 16:08:39;;;;;;;1.30;0.40;;;29.90;66.20;;;;;;10249873;28;20109;-65
2022/08/20 16:14:10;;;;;;;1.90;0.40;;;29.50;65.90;;;;;;10252055;28;20042;-65
2022/08/20 16:19:25;;;;;;;0.65;0.40;;;29.40;66.00;;;;;;10232007;28;20057;-65
2022/08/20 16:24:28;;;;;;;1.77;0.45;;;29.10;65.80;;;;;;10254134;28;20131;-65
2022/08/20 16:30:00;;;;;;;1.10;0.40;;;28.80;65.90;;;;;;10251381;28;20105;-65
2022/08/20 16:35:22;;;;;;;0.50;0.43;;;28.70;66.30;;;;;;10253037;28;20058;-65
2022/08/20 16:40:38;;;;;;;0.70;0.60;;;28.60;66.20;;;;;;10249166;28;20430;-65
2022/08/20 16:45:50;;;;;;;1.00;0.60;;;28.50;66.80;;;;;;10254990;28;20055;-65
2022/08/20 16:51:07;;;;;;;1.15;0.43;;;28.20;66.80;;;;;;10253556;28;20410;-65
2022/08/20 16:56:09;;;;;;;1.23;0.40;;;28.00;67.30;;;;;;10248820;28;20062;-65
2022/08/20 17:01:13;;;;;;;1.77;0.38;;;27.80;67.80;;;;;;10250239;28;20051;-64
2022/08/20 17:06:31;;;;;;;2.13;0.60;;;27.90;68.30;;;;;;10249675;28;20047;-65
2022/08/20 17:11:36;;;;;;;1.65;0.55;;;27.70;68.30;;;;;;10250081;28;20047;-65
2022/08/20 17:16:40;;;;;;;0.93;0.40;;;27.50;67.60;;;;;;10251192;28;20043;-65
2022/08/20 17:21:42;;;;;;;2.05;0.50;;;27.40;67.80;;;;;;10250064;28;20047;-64
2022/08/20 17:26:48;;;;;;;1.88;0.40;;;27.40;67.10;;;;;;10250231;28;20042;-65
2022/08/20 17:31:52;;;;;;;1.40;0.60;;;27.30;67.00;;;;;;10247382;28;20062;-64
2022/08/20 17:37:01;;;;;;;3.10;0.70;;;27.10;66.30;;;;;;10248798;28;20058;-64
2022/08/20 17:42:25;;;;;;;4.30;0.47;;;26.80;66.50;;;;;;10246112;28;20070;-64
2022/08/20 17:47:33;;;;;;;1.58;0.57;;;26.60;67.10;;;;;;10234948;28;20049;-64
2022/08/20 17:52:55;;;;;;;1.00;0.50;;;26.10;67.90;;;;;;10245467;28;20051;-64
2022/08/20 17:58:01;;;;;;;3.80;0.77;;;25.90;68.90;;;;;;10245633;28;20054;-65
2022/08/20 18:03:12;;;;;;;;;;;25.60;70.60;;;;;;10252484;28;20778;-65
2022/08/20 18:08:34;;;;;;;2.13;0.93;;;25.40;72.20;;;;;;10252828;28;20301;-65
2022/08/20 18:13:47;;;;;;;2.83;0.90;;;25.30;73.90;;;;;;10255793;28;20043;-64
2022/08/20 18:19:04;;;;;;;2.00;1.08;;;25.00;75.30;;;;;;10255660;28;20055;-65
2022/08/20 18:24:18;;;;;;;5.40;1.20;;;24.90;76.40;;;;;;10248703;28;20054;-65
2022/08/20 18:29:26;;;;;;;2.05;1.33;;;24.70;77.80;;;;;;10249118;28;20051;-64
2022/08/20 18:34:27;;;;;;;2.42;1.48;;;24.50;79.40;;;;;;10249567;28;20083;-66
2022/08/20 18:39:39;;;;;;;2.55;1.65;;;24.30;80.10;;;;;;10259383;28;20039;-64
2022/08/20 18:44:46;;;;;;;4.53;1.63;;;24.10;82.60;;;;;;10253847;28;20055;-66
2022/08/20 18:50:09;;;;;;;2.83;1.67;;;24.00;83.10;;;;;;10224447;28;20107;-66
2022/08/20 18:55:31;;;;;;;5.32;1.77;;;23.80;84.00;;;;;;10248861;28;20130;-66
2022/08/20 19:00:43;;;;;;;3.00;1.65;;;23.70;84.80;;;;;;10256150;28;20051;-66
2022/08/20 19:05:44;;;;;;;5.05;1.90;;;23.50;85.70;;;;;;10246064;28;20039;-66
2022/08/20 19:10:54;;;;;;;2.75;1.77;;;23.40;86.60;;;;;;10253554;28;20062;-66
2022/08/20 19:16:03;;;;;;;6.88;2.50;;;23.20;87.30;;;;;;10248913;28;20051;-66
2022/08/20 19:21:05;;;;;;;4.82;1.90;;;23.10;88.00;;;;;;10250411;28;20097;-66
2022/08/20 19:26:20;;;;;;;4.25;2.17;;;23.00;88.80;;;;;;10247651;28;20055;-66
2022/08/20 19:31:31;;;;;;;4.75;1.98;;;22.90;89.60;;;;;;10249259;28;20069;-66
2022/08/20 19:36:35;;;;;;;5.57;1.92;;;22.80;90.10;;;;;;10251590;28;20180;-66
2022/08/20 19:41:59;;;;;;;4.60;2.40;;;22.70;90.50;;;;;;10252802;28;20054;-66
2022/08/20 19:47:02;;;;;;;3.67;1.48;;;22.60;90.90;;;;;;10254808;28;20387;-66
2022/08/20 19:52:20;;;;;;;3.53;1.95;;;22.40;91.30;;;;;;10249885;28;20061;-66
2022/08/20 19:57:24;;;;;;;4.93;1.98;;;22.30;91.60;;;;;;10247716;28;20047;-66
2022/08/20 20:02:29;;;;;;;6.20;2.03;;;22.30;92.00;;;;;;10250638;28;20433;-66
2022/08/20 20:07:56;;;;;;;4.85;1.40;;;22.20;92.30;;;;;;10251361;28;20392;-66
2022/08/20 20:13:05;;;;;;;2.93;1.63;;;22.10;92.60;;;;;;10254143;28;20083;-66
2022/08/20 20:18:08;;;;;;;3.45;1.60;;;22.00;92.90;;;;;;10249286;28;20161;-66
2022/08/20 20:23:22;;;;;;;2.58;1.48;;;21.90;93.10;;;;;;10229415;28;20055;-66
2022/08/20 20:28:41;;;;;;;3.10;1.58;;;21.80;93.50;;;;;;10248027;28;20129;-66
2022/08/20 20:33:43;;;;;;;5.38;1.48;;;21.70;93.70;;;;;;10251497;28;20074;-66
2022/08/20 20:38:57;;;;;;;5.55;1.70;;;21.70;93.90;;;;;;10245745;28;20126;-66
2022/08/20 20:44:17;;;;;;;7.82;1.45;;;21.60;94.10;;;;;;10237644;28;20721;-66
2022/08/20 20:49:25;;;;;;;5.85;1.98;;;21.60;94.40;;;;;;10250074;28;20051;-66
2022/08/20 20:54:43;;;;;;;2.00;1.13;;;21.50;94.60;;;;;;10236477;28;20058;-66
2022/08/20 20:59:49;;;;;;;7.95;1.90;;;21.40;94.80;;;;;;10249723;28;20054;-66
2022/08/20 21:04:51;;;;;;;2.90;1.73;;;21.30;94.90;;;;;;10253297;28;20110;-66
2022/08/20 21:09:55;;;;;;;4.40;1.42;;;21.30;95.00;;;;;;10252659;28;20051;-66
2022/08/20 21:14:57;;;;;;;6.90;1.30;;;21.30;95.20;;;;;;10244823;28;20046;-66
2022/08/20 21:19:59;;;;;;;3.08;1.10;;;21.20;95.30;;;;;;10246190;28;20043;-66
2022/08/20 21:25:03;;;;;;;2.47;1.05;;;21.20;95.60;;;;;;10244804;28;20142;-66
2022/08/20 21:30:05;;;;;;;7.45;1.88;;;21.20;95.50;;;;;;10250800;28;20058;-66
2022/08/20 21:35:08;;;;;;;6.53;1.02;;;21.10;95.70;;;;;;10245964;28;20101;-66
2022/08/20 21:40:11;;;;;;;3.67;0.80;;;21.10;96.00;;;;;;10258911;28;20106;-66
2022/08/20 21:45:15;;;;;;;4.70;1.30;;;21.00;96.00;;;;;;10251578;28;20049;-66
2022/08/20 21:50:20;;;;;;;3.42;0.90;;;20.90;96.00;;;;;;10257912;28;20055;-61
2022/08/20 21:55:22;;;;;;;2.67;1.08;;;20.90;96.00;;;;;;10254342;28;20104;-61
2022/08/20 22:00:45;;;;;;;2.88;1.00;;;20.90;96.30;;;;;;10253256;28;20051;-61
2022/08/20 22:05:47;;;;;;;3.13;1.10;;;20.80;96.60;;;;;;10256145;28;20101;-61
2022/08/20 22:10:52;;;;;;;5.13;1.60;;;20.70;96.90;;;;;;10258637;28;20060;-61
2022/08/20 22:15:54;;;;;;;5.75;1.23;;;20.60;97.30;;;;;;10260880;28;20055;-61
2022/08/20 22:20:56;;;;;;;3.65;1.38;;;20.60;97.40;;;;;;10257604;28;20059;-61
2022/08/20 22:25:58;;;;;;;5.45;1.20;;;20.50;97.70;;;;;;10250873;28;20561;-61
2022/08/20 22:31:00;;;;;;;5.63;1.33;;;20.50;98.10;;;;;;10259905;28;20118;-61
2022/08/20 22:36:04;;;;;;;6.38;1.77;;;20.40;98.70;;;;;;10261060;28;20043;-61
2022/08/20 22:41:06;;;;;;;5.40;1.30;;;20.40;99.00;;;;;;10254137;28;20058;-61
2022/08/20 22:46:13;;;;;;;4.88;1.33;;;20.30;99.40;;;;;;10251649;28;20083;-61
2022/08/20 22:51:21;;;;;;;4.32;1.60;;;20.20;99.50;;;;;;10262564;28;20062;-61
2022/08/20 22:56:23;;;;;;;5.75;1.80;;;20.20;99.80;;;;;;10253730;28;20490;-61
2022/08/20 23:01:25;;;;;;;4.00;1.50;;;20.10;99.90;;;;;;10256982;28;20046;-61
2022/08/20 23:06:28;;;;;;;6.10;1.75;;;20.10;99.90;;;;;;10251950;28;20053;-61
2022/08/20 23:11:30;;;;;;;7.40;2.45;;;20.10;99.90;;;;;;10253920;28;20109;-61
2022/08/20 23:16:32;;;;;;;3.38;1.70;;;20.10;99.90;;;;;;10247911;28;20062;-61
2022/08/20 23:21:34;;;;;;;2.58;1.15;;;20.00;99.90;;;;;;10253982;28;20051;-61
2022/08/20 23:26:35;;;;;;;5.43;1.83;;;19.90;99.90;;;;;;10254478;28;20047;-61
2022/08/20 23:31:42;;;;;;;4.47;1.88;;;19.90;99.90;;;;;;10253791;28;20043;-62
2022/08/20 23:36:44;;;;;;;8.25;1.85;;;19.80;99.90;;;;;;10246644;28;20050;-62
2022/08/20 23:41:45;;;;;;;6.43;1.50;;;19.70;99.90;;;;;;10253719;28;20050;-61
2022/08/20 23:46:48;;;;;;;6.07;1.38;;;19.60;99.90;;;;;;10241309;28;20081;-62
2022/08/20 23:51:53;;;;;;;7.43;2.20;;;19.60;99.90;;;;;;10250007;28;20050;-61
2022/08/20 23:56:55;;;;;;;6.35;1.83;;;19.50;99.90;;;;;;10251703;28;20090;-61
